Time;durP1;ratioP1;P1;durP2;ratioP2;P2;SDS_P1;SDS_P2;PMS_P1;PMS_P2;Temp;Humidity;BMP_temperature;BMP_pressure;BME280_temperature;BME280_humidity;BME280_pressure;Samples;Min_cycle;Max_cycle;Signal;HPM_P1;HPM_P2
2023/07/21 00:01:06;;;;;;;2.00;1.30;;;12.70;99.90;;;;;;5032806;28;20102;-87
2023/07/21 00:03:33;;;;;;;2.55;1.52;;;12.60;99.90;;;;;;5027471;28;20045;-85
2023/07/21 00:06:06;;;;;;;3.75;1.75;;;12.50;99.90;;;;;;5014021;28;20041;-85
2023/07/21 00:08:32;;;;;;;2.72;1.70;;;12.50;99.90;;;;;;5020710;28;20425;-84
2023/07/21 00:10:58;;;;;;;3.20;1.80;;;12.40;99.90;;;;;;5013995;28;20053;-85
2023/07/21 00:13:25;;;;;;;2.55;1.60;;;12.50;99.90;;;;;;5030011;28;20041;-86
2023/07/21 00:15:51;;;;;;;2.78;1.60;;;12.60;99.90;;;;;;5020774;28;20409;-85
2023/07/21 00:18:16;;;;;;;3.38;1.70;;;12.60;99.90;;;;;;5013929;28;20029;-86
2023/07/21 00:20:42;;;;;;;4.45;1.80;;;12.70;99.90;;;;;;5014990;28;20497;-86
2023/07/21 00:23:08;;;;;;;4.18;1.60;;;12.70;99.90;;;;;;5030279;28;20037;-86
2023/07/21 00:25:34;;;;;;;2.60;1.80;;;12.70;99.90;;;;;;5029625;28;20049;-85
2023/07/21 00:28:00;;;;;;;3.80;1.90;;;12.60;99.90;;;;;;5017136;28;20044;-86
2023/07/21 00:30:25;;;;;;;2.70;1.70;;;12.50;99.90;;;;;;5020823;28;20382;-86
2023/07/21 00:32:51;;;;;;;2.30;1.60;;;12.50;99.90;;;;;;5032019;28;20045;-86
2023/07/21 00:35:17;;;;;;;2.22;1.52;;;12.60;99.90;;;;;;5021567;28;20451;-85
2023/07/21 00:37:43;;;;;;;3.35;1.92;;;12.60;99.90;;;;;;5029376;28;20053;-85
2023/07/21 00:40:11;;;;;;;4.60;2.00;;;12.70;99.90;;;;;;5021935;28;20088;-85
2023/07/21 00:42:37;;;;;;;3.10;1.70;;;12.70;99.90;;;;;;5015644;28;20085;-86
2023/07/21 00:45:03;;;;;;;3.85;1.60;;;12.80;99.90;;;;;;5008702;28;20081;-85
2023/07/21 00:47:29;;;;;;;4.10;1.80;;;12.80;99.90;;;;;;5024295;28;20050;-86
2023/07/21 00:49:56;;;;;;;3.03;1.45;;;12.80;99.90;;;;;;5026396;28;20065;-84
2023/07/21 00:52:26;;;;;;;3.10;1.75;;;12.80;99.90;;;;;;5019535;28;20054;-84
2023/07/21 00:54:52;;;;;;;4.18;2.20;;;12.90;99.90;;;;;;5019269;28;20116;-84
2023/07/21 00:57:20;;;;;;;3.08;2.10;;;12.90;99.90;;;;;;5036030;28;20102;-84
2023/07/21 00:59:46;;;;;;;3.00;1.83;;;13.00;99.90;;;;;;5019446;28;20082;-86
2023/07/21 01:02:12;;;;;;;3.10;1.88;;;13.00;99.90;;;;;;5016214;28;20506;-85
2023/07/21 01:04:38;;;;;;;4.05;1.75;;;13.00;99.90;;;;;;5023465;28;20124;-85
2023/07/21 01:07:09;;;;;;;2.80;2.10;;;13.00;99.90;;;;;;5016240;28;20047;-84
2023/07/21 01:09:36;;;;;;;2.60;1.70;;;13.00;99.90;;;;;;5040775;28;20525;-84
2023/07/21 01:12:06;;;;;;;3.42;1.70;;;12.90;99.90;;;;;;5051289;28;20056;-84
2023/07/21 01:14:36;;;;;;;3.28;1.80;;;12.90;99.90;;;;;;5035855;28;20045;-84
2023/07/21 01:17:06;;;;;;;3.22;1.95;;;12.80;99.90;;;;;;5035371;28;20115;-84
2023/07/21 01:19:34;;;;;;;3.70;2.30;;;12.90;99.90;;;;;;5035762;28;20033;-84
2023/07/21 01:22:24;;;;;;;4.32;2.25;;;12.90;99.90;;;;;;5021770;28;20049;-84
2023/07/21 01:24:50;;;;;;;4.60;2.38;;;13.00;99.90;;;;;;5014531;28;20088;-84
2023/07/21 01:27:24;;;;;;;3.90;1.77;;;13.00;99.90;;;;;;5014475;28;20454;-84
2023/07/21 01:29:51;;;;;;;4.13;2.03;;;13.10;99.90;;;;;;5015036;28;20050;-84
2023/07/21 01:32:25;;;;;;;4.05;2.05;;;13.10;99.90;;;;;;5023004;28;20060;-84
2023/07/21 01:34:53;;;;;;;3.55;2.17;;;13.10;99.90;;;;;;5023503;28;20058;-84
2023/07/21 01:37:21;;;;;;;3.25;1.95;;;13.10;99.90;;;;;;5031383;28;20044;-84
2023/07/21 01:39:47;;;;;;;3.50;1.70;;;13.10;99.90;;;;;;5021906;28;20050;-83
2023/07/21 01:42:13;;;;;;;3.50;1.80;;;13.00;99.90;;;;;;5014684;28;20049;-84
2023/07/21 01:44:39;;;;;;;2.72;1.92;;;13.00;99.90;;;;;;5014360;28;20045;-84
2023/07/21 01:47:05;;;;;;;4.05;1.73;;;13.00;99.90;;;;;;5050257;28;20095;-84
2023/07/21 01:49:31;;;;;;;4.18;1.88;;;13.00;99.90;;;;;;5033751;28;20045;-84
2023/07/21 01:51:58;;;;;;;2.78;1.98;;;13.00;99.90;;;;;;5034774;28;20054;-84
2023/07/21 01:54:38;;;;;;;5.43;2.05;;;13.00;99.90;;;;;;5034068;28;20042;-83
2023/07/21 01:57:06;;;;;;;3.78;2.30;;;13.10;99.90;;;;;;5050349;28;20513;-83
2023/07/21 01:59:31;;;;;;;3.90;2.20;;;13.10;99.90;;;;;;5050589;28;20370;-84
2023/07/21 02:01:57;;;;;;;3.35;1.98;;;13.10;99.90;;;;;;5033949;28;20041;-84
2023/07/21 02:04:23;;;;;;;3.92;1.95;;;13.10;99.90;;;;;;5022956;28;20116;-84
2023/07/21 02:06:52;;;;;;;3.55;2.05;;;13.10;99.90;;;;;;5029171;28;20038;-83
2023/07/21 02:09:20;;;;;;;4.03;2.22;;;13.10;99.90;;;;;;5034640;28;20374;-83
2023/07/21 02:11:48;;;;;;;3.05;2.00;;;13.10;99.90;;;;;;5050406;28;20037;-83
2023/07/21 02:14:14;;;;;;;4.72;2.22;;;13.10;99.90;;;;;;5033981;28;20569;-84
2023/07/21 02:16:40;;;;;;;3.00;1.98;;;13.10;99.90;;;;;;5027687;28;20120;-83
2023/07/21 02:19:07;;;;;;;5.20;2.13;;;13.10;99.90;;;;;;5013988;28;20378;-83
2023/07/21 02:21:33;;;;;;;3.97;2.10;;;13.10;99.90;;;;;;5034615;28;20044;-83
2023/07/21 02:23:59;;;;;;;4.38;2.63;;;13.10;99.90;;;;;;5034743;28;20526;-83
2023/07/21 02:26:25;;;;;;;3.60;2.30;;;13.10;99.90;;;;;;5029887;28;20050;-83
2023/07/21 02:28:51;;;;;;;4.38;2.58;;;13.20;99.90;;;;;;4997356;28;20045;-84
2023/07/21 02:31:18;;;;;;;5.20;2.25;;;13.20;99.90;;;;;;5013771;28;20459;-83
2023/07/21 02:33:43;;;;;;;2.88;1.92;;;13.10;99.90;;;;;;4997333;28;20053;-85
2023/07/21 02:36:09;;;;;;;3.20;2.13;;;13.00;99.90;;;;;;5032747;28;20071;-84
2023/07/21 02:38:35;;;;;;;3.10;2.15;;;12.90;99.90;;;;;;5027292;28;20037;-84
2023/07/21 02:41:04;;;;;;;3.60;2.20;;;12.80;99.90;;;;;;4996209;28;20195;-83
2023/07/21 02:43:32;;;;;;;2.97;1.95;;;12.80;99.90;;;;;;5014910;28;20038;-84
2023/07/21 02:45:58;;;;;;;4.13;2.08;;;12.70;99.90;;;;;;5014105;28;20129;-84
2023/07/21 02:48:23;;;;;;;3.00;2.10;;;12.60;99.90;;;;;;5013233;28;20177;-84
2023/07/21 02:50:51;;;;;;;3.08;2.15;;;12.50;99.90;;;;;;5024241;28;20095;-84
2023/07/21 02:53:19;;;;;;;3.70;2.50;;;12.40;99.90;;;;;;5020656;28;20038;-84
2023/07/21 02:55:45;;;;;;;3.22;2.00;;;12.30;99.90;;;;;;5028242;28;20042;-83
2023/07/21 02:58:14;;;;;;;2.92;1.83;;;12.30;99.90;;;;;;5049684;28;20041;-85
2023/07/21 03:00:40;;;;;;;4.38;2.40;;;12.30;99.90;;;;;;5033625;28;20103;-84
2023/07/21 03:03:08;;;;;;;4.18;2.28;;;12.20;99.90;;;;;;5039214;28;20073;-83
2023/07/21 03:05:35;;;;;;;3.10;2.17;;;12.20;99.90;;;;;;5025946;28;20095;-84
2023/07/21 03:08:02;;;;;;;5.68;2.33;;;12.20;99.90;;;;;;5017075;28;20050;-83
2023/07/21 03:10:27;;;;;;;4.30;2.17;;;12.20;99.90;;;;;;5027433;28;20044;-83
2023/07/21 03:12:53;;;;;;;3.55;2.70;;;12.20;99.90;;;;;;5033553;28;20386;-83
2023/07/21 03:15:19;;;;;;;3.20;1.80;;;12.30;99.90;;;;;;5033836;28;20041;-84
2023/07/21 03:17:46;;;;;;;5.63;2.50;;;12.30;99.90;;;;;;5016671;28;20045;-84
2023/07/21 03:20:12;;;;;;;3.40;2.47;;;12.30;99.90;;;;;;5012599;28;20360;-85
2023/07/21 03:22:42;;;;;;;3.50;1.85;;;12.40;99.90;;;;;;5013843;28;20050;-84
2023/07/21 03:25:09;;;;;;;3.65;2.20;;;12.40;99.90;;;;;;5007460;28;20056;-84
2023/07/21 03:27:35;;;;;;;4.10;2.00;;;12.40;99.90;;;;;;5026342;28;20041;-84
2023/07/21 03:30:01;;;;;;;4.55;3.25;;;12.40;99.90;;;;;;5020978;28;20095;-85
2023/07/21 03:32:27;;;;;;;4.25;2.05;;;12.30;99.90;;;;;;5019373;28;20045;-85
2023/07/21 03:34:54;;;;;;;4.78;2.00;;;12.30;99.90;;;;;;4996874;28;20053;-85
2023/07/21 03:37:23;;;;;;;3.10;1.90;;;12.20;99.90;;;;;;5010094;28;20072;-86
2023/07/21 03:39:49;;;;;;;2.58;1.75;;;12.10;99.90;;;;;;5032703;28;20378;-85
2023/07/21 03:42:15;;;;;;;2.92;1.80;;;12.10;99.90;;;;;;5032366;28;20045;-85
2023/07/21 03:44:40;;;;;;;3.95;2.20;;;12.10;99.90;;;;;;5031605;28;20433;-85
2023/07/21 03:47:06;;;;;;;5.25;2.13;;;12.00;99.90;;;;;;5032440;28;20045;-84
2023/07/21 03:49:34;;;;;;;3.60;2.20;;;12.00;99.90;;;;;;5031987;28;20042;-83
2023/07/21 03:52:00;;;;;;;4.35;2.30;;;12.00;99.90;;;;;;5016702;28;20498;-83
2023/07/21 03:54:25;;;;;;;3.05;1.90;;;12.00;99.90;;;;;;5031704;28;20064;-84
2023/07/21 03:56:51;;;;;;;5.00;1.88;;;12.00;99.90;;;;;;4987011;28;20066;-85
2023/07/21 03:59:16;;;;;;;3.17;2.17;;;12.00;99.90;;;;;;5022638;28;20041;-84
2023/07/21 04:01:42;;;;;;;3.55;1.70;;;12.00;99.90;;;;;;5036399;28;20128;-84
2023/07/21 04:04:08;;;;;;;4.57;2.10;;;12.00;99.90;;;;;;5016156;28;20033;-86
2023/07/21 04:06:33;;;;;;;4.80;2.30;;;12.00;99.90;;;;;;5006777;28;20072;-86
2023/07/21 04:09:00;;;;;;;3.13;2.10;;;12.00;99.90;;;;;;5012545;28;20053;-85
2023/07/21 04:11:25;;;;;;;2.75;1.88;;;12.00;99.90;;;;;;5022229;28;20050;-85
2023/07/21 04:13:51;;;;;;;3.50;2.00;;;12.00;99.90;;;;;;5033137;28;20478;-85
2023/07/21 04:16:17;;;;;;;5.85;3.25;;;12.00;99.90;;;;;;5033511;28;20425;-85
2023/07/21 04:18:42;;;;;;;3.45;1.83;;;12.00;99.90;;;;;;5032246;28;20517;-84
2023/07/21 04:21:08;;;;;;;3.17;2.13;;;12.10;99.90;;;;;;5031540;28;20073;-85
2023/07/21 04:23:34;;;;;;;4.72;2.22;;;12.10;99.90;;;;;;5029660;28;20497;-85
2023/07/21 04:26:00;;;;;;;4.30;2.00;;;12.20;99.90;;;;;;5011481;28;20127;-86
2023/07/21 04:28:26;;;;;;;5.82;2.30;;;12.20;99.90;;;;;;5012974;28;20489;-86
2023/07/21 04:30:56;;;;;;;3.97;1.95;;;12.20;99.90;;;;;;5012798;28;20054;-84
2023/07/21 04:33:22;;;;;;;7.97;2.88;;;12.30;99.90;;;;;;4983798;28;20037;-84
2023/07/21 04:35:48;;;;;;;4.57;2.40;;;12.30;99.90;;;;;;5029330;28;20470;-85
2023/07/21 04:38:14;;;;;;;3.97;2.10;;;12.30;99.90;;;;;;5020543;28;20049;-84
2023/07/21 04:40:46;;;;;;;4.10;2.90;;;12.40;99.90;;;;;;5032622;28;20041;-84
2023/07/21 04:43:12;;;;;;;4.97;2.13;;;12.50;99.90;;;;;;5017619;28;20490;-83
2023/07/21 04:45:42;;;;;;;5.15;2.20;;;12.50;99.90;;;;;;5012634;28;20038;-84
2023/07/21 04:48:08;;;;;;;4.45;2.60;;;12.60;99.90;;;;;;5013743;28;20475;-85
2023/07/21 04:50:34;;;;;;;4.63;2.60;;;12.80;99.90;;;;;;5014227;28;20213;-84
2023/07/21 04:53:01;;;;;;;5.00;2.45;;;12.80;99.90;;;;;;5011688;28;20046;-83
2023/07/21 04:55:27;;;;;;;4.47;2.50;;;12.90;99.90;;;;;;5012685;28;20459;-83
2023/07/21 04:57:53;;;;;;;3.20;2.20;;;13.00;99.90;;;;;;5012507;28;20056;-85
2023/07/21 05:00:19;;;;;;;4.00;2.30;;;13.10;99.90;;;;;;4996330;28;20040;-84
2023/07/21 05:02:45;;;;;;;3.97;2.70;;;13.20;99.90;;;;;;5011816;28;20037;-85
2023/07/21 05:05:10;;;;;;;4.38;2.55;;;13.30;99.90;;;;;;5012424;28;20148;-85
2023/07/21 05:07:36;;;;;;;3.03;2.28;;;13.40;99.90;;;;;;5025421;28;20385;-85
2023/07/21 05:10:03;;;;;;;4.13;2.50;;;13.40;99.90;;;;;;5032850;28;20045;-84
2023/07/21 05:12:29;;;;;;;3.97;2.30;;;13.50;99.90;;;;;;5024474;28;20042;-82
2023/07/21 05:14:54;;;;;;;2.95;2.20;;;13.70;99.90;;;;;;5009943;28;20115;-84
2023/07/21 05:17:20;;;;;;;3.50;2.55;;;13.70;99.90;;;;;;5010185;28;20462;-85
2023/07/21 05:19:46;;;;;;;3.38;2.28;;;13.80;99.90;;;;;;5016479;28;20179;-84
2023/07/21 05:22:12;;;;;;;4.25;2.53;;;13.90;99.90;;;;;;5015958;28;20050;-84
2023/07/21 05:24:39;;;;;;;4.50;2.40;;;14.00;99.90;;;;;;5015734;28;20382;-84
2023/07/21 05:27:05;;;;;;;3.80;2.00;;;14.10;99.90;;;;;;5015703;28;20030;-85
2023/07/21 05:29:33;;;;;;;5.55;2.05;;;14.20;99.90;;;;;;5015400;28;20041;-83
2023/07/21 05:31:58;;;;;;;5.03;2.25;;;14.30;99.90;;;;;;5017115;28;20056;-84
2023/07/21 05:34:24;;;;;;;3.47;2.17;;;14.30;99.90;;;;;;5042451;28;20033;-84
2023/07/21 05:36:50;;;;;;;3.22;1.90;;;14.40;99.90;;;;;;5025043;28;20076;-84
2023/07/21 05:39:15;;;;;;;3.50;1.92;;;14.50;99.90;;;;;;5022355;28;20364;-84
2023/07/21 05:41:41;;;;;;;4.30;1.83;;;14.50;99.90;;;;;;5015178;28;20086;-84
2023/07/21 05:44:07;;;;;;;3.00;1.92;;;14.50;99.90;;;;;;5024247;28;20045;-73
2023/07/21 05:46:32;;;;;;;3.47;1.95;;;14.60;99.90;;;;;;5013955;28;20046;-75
2023/07/21 05:48:58;;;;;;;3.50;2.05;;;14.60;99.90;;;;;;5031140;28;20049;-74
2023/07/21 05:51:23;;;;;;;3.40;1.90;;;14.80;99.90;;;;;;5032877;28;20048;-74
2023/07/21 05:53:49;;;;;;;3.35;2.05;;;14.90;99.90;;;;;;5030321;28;20474;-74
2023/07/21 05:56:15;;;;;;;4.75;2.30;;;15.00;99.90;;;;;;5025543;28;20072;-73
2023/07/21 05:58:41;;;;;;;5.10;2.40;;;15.10;99.90;;;;;;5034883;28;20052;-74
2023/07/21 06:01:10;;;;;;;3.85;2.20;;;15.20;99.90;;;;;;5027628;28;20041;-74
2023/07/21 06:03:37;;;;;;;4.50;2.47;;;15.40;99.90;;;;;;5022669;28;20482;-73
2023/07/21 06:06:04;;;;;;;4.70;2.17;;;15.50;99.90;;;;;;5023843;28;20522;-74
2023/07/21 06:08:30;;;;;;;4.10;2.17;;;15.50;99.90;;;;;;5034660;28;20432;-74
2023/07/21 06:11:00;;;;;;;3.28;2.05;;;15.70;99.90;;;;;;5034774;28;20045;-74
2023/07/21 06:13:28;;;;;;;2.72;1.77;;;15.70;99.90;;;;;;5033644;28;20037;-74
2023/07/21 06:15:54;;;;;;;2.38;1.52;;;15.90;99.90;;;;;;5043063;28;20170;-74
2023/07/21 06:18:19;;;;;;;2.67;1.73;;;15.90;99.90;;;;;;5020876;28;20494;-74
2023/07/21 06:20:45;;;;;;;3.45;1.60;;;16.00;99.90;;;;;;5034301;28;20073;-74
2023/07/21 06:23:11;;;;;;;3.78;1.85;;;16.00;99.90;;;;;;5016612;28;20389;-74
2023/07/21 06:25:41;;;;;;;3.17;1.70;;;16.10;99.90;;;;;;5033898;28;20467;-73
2023/07/21 06:28:06;;;;;;;2.28;1.45;;;16.20;99.90;;;;;;5034443;28;20119;-74
2023/07/21 06:30:32;;;;;;;5.85;1.77;;;16.20;99.90;;;;;;5019696;28;20482;-74
2023/07/21 06:32:58;;;;;;;2.38;1.40;;;16.30;99.90;;;;;;5014482;28;20045;-73
2023/07/21 06:35:24;;;;;;;2.45;1.15;;;16.40;99.90;;;;;;5014304;28;20109;-74
2023/07/21 06:37:50;;;;;;;3.53;1.50;;;16.40;99.90;;;;;;5029402;28;20045;-73
2023/07/21 06:40:17;;;;;;;2.25;1.42;;;16.40;99.90;;;;;;5033326;28;20048;-74
2023/07/21 06:42:44;;;;;;;2.40;1.40;;;16.40;99.90;;;;;;5034200;28;20131;-73
2023/07/21 06:45:10;;;;;;;2.63;1.67;;;16.40;99.90;;;;;;5042496;28;20125;-74
2023/07/21 06:47:38;;;;;;;4.07;1.65;;;16.50;99.90;;;;;;5049022;28;20098;-73
2023/07/21 06:50:04;;;;;;;2.80;1.38;;;16.60;99.90;;;;;;5032567;28;20041;-74
2023/07/21 06:52:30;;;;;;;2.67;1.30;;;16.60;99.90;;;;;;5019024;28;20120;-73
2023/07/21 06:54:58;;;;;;;2.65;1.20;;;16.70;99.90;;;;;;5029968;28;20496;-72
2023/07/21 06:57:24;;;;;;;2.45;1.02;;;16.70;99.90;;;;;;5021024;28;20061;-72
2023/07/21 06:59:50;;;;;;;2.75;1.20;;;16.80;99.90;;;;;;5017741;28;20449;-73
2023/07/21 07:02:15;;;;;;;2.10;1.02;;;16.90;99.90;;;;;;5020257;28;20116;-73
2023/07/21 07:04:41;;;;;;;1.80;0.93;;;17.00;99.90;;;;;;5016288;28;20121;-73
2023/07/21 07:07:07;;;;;;;3.40;1.10;;;17.10;99.90;;;;;;5012655;28;20458;-74
2023/07/21 07:09:33;;;;;;;1.70;0.90;;;17.10;99.90;;;;;;5030853;28;20378;-73
2023/07/21 07:11:59;;;;;;;1.80;0.90;;;17.20;99.90;;;;;;5033646;28;20120;-72
2023/07/21 07:14:24;;;;;;;2.67;0.90;;;17.30;99.90;;;;;;5021348;28;20129;-73
2023/07/21 07:16:50;;;;;;;2.78;1.23;;;17.30;99.90;;;;;;5012585;28;20073;-72
2023/07/21 07:19:17;;;;;;;2.60;1.10;;;17.30;99.90;;;;;;5013071;28;20459;-73
2023/07/21 07:21:43;;;;;;;1.77;1.00;;;17.40;99.90;;;;;;5012152;28;20041;-72
2023/07/21 07:24:09;;;;;;;2.25;1.05;;;17.60;99.90;;;;;;5017423;28;20121;-73
2023/07/21 07:26:35;;;;;;;2.85;1.20;;;17.60;99.90;;;;;;5029867;28;20038;-73
2023/07/21 07:29:03;;;;;;;3.15;1.40;;;17.70;99.90;;;;;;5032349;28;20044;-73
2023/07/21 07:31:30;;;;;;;3.05;1.25;;;17.90;99.90;;;;;;5014674;28;20471;-74
2023/07/21 07:33:56;;;;;;;2.92;1.38;;;17.90;99.90;;;;;;5023852;28;20041;-72
2023/07/21 07:36:21;;;;;;;2.63;1.60;;;18.00;99.90;;;;;;5026052;28;20052;-73
2023/07/21 07:38:47;;;;;;;2.72;1.30;;;18.10;99.90;;;;;;5026041;28;20052;-71
2023/07/21 07:41:13;;;;;;;2.45;1.15;;;18.20;99.90;;;;;;5025136;28;20434;-73
2023/07/21 07:43:39;;;;;;;3.13;1.40;;;18.20;99.90;;;;;;5018127;28;20045;-73
2023/07/21 07:46:07;;;;;;;3.72;1.33;;;18.20;99.90;;;;;;5023866;28;20076;-73
2023/07/21 07:48:34;;;;;;;2.30;1.48;;;18.40;99.90;;;;;;5023053;28;20223;-74
2023/07/21 07:51:03;;;;;;;2.97;1.40;;;18.40;99.90;;;;;;5015501;28;20121;-73
2023/07/21 07:53:29;;;;;;;2.63;1.25;;;18.40;99.90;;;;;;5022689;28;20037;-73
2023/07/21 07:55:55;;;;;;;4.70;1.52;;;18.50;99.90;;;;;;5030294;28;20049;-73
2023/07/21 07:58:21;;;;;;;2.85;1.30;;;18.60;99.90;;;;;;5027449;28;20467;-73
2023/07/21 08:00:47;;;;;;;3.08;1.48;;;18.80;99.90;;;;;;5012442;28;20042;-73
2023/07/21 08:03:14;;;;;;;2.58;1.50;;;19.00;99.90;;;;;;5031915;28;20041;-71
2023/07/21 08:05:40;;;;;;;2.22;1.20;;;19.10;99.90;;;;;;5014722;28;20052;-73
2023/07/21 08:08:07;;;;;;;2.17;1.35;;;19.10;99.90;;;;;;5027667;28;20042;-72
2023/07/21 08:10:34;;;;;;;3.25;1.40;;;19.20;99.90;;;;;;5012177;28;20038;-73
2023/07/21 08:13:02;;;;;;;2.60;1.30;;;19.20;99.90;;;;;;5016807;28;20037;-72
2023/07/21 08:15:29;;;;;;;1.85;0.90;;;19.10;99.90;;;;;;5011227;28;20360;-71
2023/07/21 08:17:54;;;;;;;2.58;0.80;;;18.90;99.90;;;;;;5015231;28;20034;-74
2023/07/21 08:20:21;;;;;;;1.63;0.75;;;18.70;99.90;;;;;;5042699;28;20102;-72
2023/07/21 08:22:52;;;;;;;1.70;0.70;;;18.70;99.90;;;;;;5016756;28;20046;-74
2023/07/21 08:25:19;;;;;;;2.13;0.80;;;18.70;99.90;;;;;;5030095;28;20069;-73
2023/07/21 08:27:45;;;;;;;1.73;0.88;;;18.80;99.90;;;;;;5026402;28;20041;-72
2023/07/21 08:30:12;;;;;;;1.85;0.88;;;18.90;99.90;;;;;;5016449;28;20041;-72
2023/07/21 08:32:40;;;;;;;1.50;0.70;;;19.00;99.90;;;;;;5017121;28;20053;-72
2023/07/21 08:35:07;;;;;;;2.70;1.00;;;19.10;99.90;;;;;;5021323;28;20046;-72
2023/07/21 08:37:33;;;;;;;3.35;1.10;;;19.30;99.90;;;;;;5022673;28;20045;-72
2023/07/21 08:39:59;;;;;;;1.80;0.82;;;19.40;99.90;;;;;;5011325;28;20046;-72
2023/07/21 08:42:26;;;;;;;1.60;0.85;;;19.50;99.90;;;;;;5012602;28;20125;-74
2023/07/21 08:44:53;;;;;;;1.33;0.73;;;19.50;99.90;;;;;;5028713;28;20053;-72
2023/07/21 08:47:21;;;;;;;2.28;0.88;;;19.60;99.90;;;;;;5014968;28;20544;-76
2023/07/21 08:49:47;;;;;;;2.15;0.90;;;19.80;99.90;;;;;;5016166;28;20081;-71
2023/07/21 08:52:14;;;;;;;2.15;0.98;;;19.90;99.90;;;;;;5026320;28;20088;-70
2023/07/21 08:54:40;;;;;;;1.70;0.70;;;20.00;99.90;;;;;;5025053;28;20050;-72
2023/07/21 08:57:05;;;;;;;1.23;0.70;;;20.00;99.90;;;;;;5024247;28;20141;-72
2023/07/21 08:59:31;;;;;;;1.75;0.80;;;20.10;99.90;;;;;;5031997;28;20384;-71
2023/07/21 09:01:57;;;;;;;3.15;0.90;;;20.20;99.90;;;;;;5035102;28;20042;-72
2023/07/21 09:04:25;;;;;;;1.92;0.80;;;20.30;99.90;;;;;;5022822;28;20494;-72
2023/07/21 09:06:51;;;;;;;1.63;0.75;;;20.30;99.90;;;;;;5022030;28;20041;-72
2023/07/21 09:09:19;;;;;;;1.85;1.00;;;20.30;99.90;;;;;;5016705;28;20077;-72
2023/07/21 09:11:45;;;;;;;2.28;1.00;;;20.20;99.90;;;;;;5016041;28;20457;-75
2023/07/21 09:14:11;;;;;;;1.75;0.90;;;20.30;99.90;;;;;;5025552;28;20044;-75
2023/07/21 09:16:40;;;;;;;2.00;0.80;;;20.50;99.90;;;;;;5019970;28;20045;-75
2023/07/21 09:19:07;;;;;;;1.50;0.70;;;20.60;99.90;;;;;;5024141;28;20046;-76
2023/07/21 09:21:35;;;;;;;1.30;0.70;;;20.50;99.90;;;;;;5016053;28;20045;-74
2023/07/21 09:24:05;;;;;;;1.38;0.70;;;20.50;99.90;;;;;;5014838;28;20045;-74
2023/07/21 09:26:32;;;;;;;1.83;0.70;;;20.50;99.90;;;;;;5018847;28;20116;-74
2023/07/21 09:28:58;;;;;;;1.50;0.70;;;20.50;99.90;;;;;;5020195;28;20440;-74
2023/07/21 09:31:34;;;;;;;2.63;0.80;;;20.40;99.90;;;;;;5024287;28;20041;-75
2023/07/21 09:34:08;;;;;;;1.95;0.98;;;20.40;99.90;;;;;;5033153;28;20060;-75
2023/07/21 09:36:34;;;;;;;2.38;1.00;;;20.50;99.90;;;;;;5019989;28;20080;-75
2023/07/21 09:39:07;;;;;;;4.57;1.70;;;20.50;99.90;;;;;;5024842;28;20069;-78
2023/07/21 09:41:34;;;;;;;2.08;1.00;;;20.60;99.90;;;;;;5017316;28;20042;-78
2023/07/21 09:44:01;;;;;;;1.73;0.88;;;20.60;99.90;;;;;;5019966;28;20128;-74
2023/07/21 09:46:26;;;;;;;1.40;0.80;;;20.70;99.90;;;;;;5044924;28;20096;-75
2023/07/21 09:48:53;;;;;;;1.42;0.65;;;20.70;99.90;;;;;;5040538;28;20487;-77
2023/07/21 09:51:20;;;;;;;1.25;0.70;;;20.70;99.90;;;;;;5038474;28;20049;-76
2023/07/21 09:53:49;;;;;;;1.88;0.90;;;20.80;99.90;;;;;;5030930;28;20037;-76
2023/07/21 09:56:19;;;;;;;2.63;0.80;;;20.80;99.90;;;;;;5028633;28;20093;-75
2023/07/21 09:59:00;;;;;;;1.45;0.70;;;20.80;99.90;;;;;;5032894;28;20053;-72
2023/07/21 10:01:26;;;;;;;1.75;0.90;;;20.80;99.90;;;;;;5014150;28;20360;-73
2023/07/21 10:03:52;;;;;;;2.17;0.82;;;20.80;99.90;;;;;;5022993;28;20076;-73
2023/07/21 10:06:19;;;;;;;1.40;0.73;;;20.80;99.90;;;;;;5030925;28;20045;-72
2023/07/21 10:08:45;;;;;;;1.85;0.80;;;20.90;99.90;;;;;;5020380;28;20052;-72
2023/07/21 10:11:12;;;;;;;1.90;1.00;;;21.00;99.90;;;;;;5014854;28;20037;-72
2023/07/21 10:13:46;;;;;;;2.25;0.80;;;21.30;99.90;;;;;;5013790;28;20479;-75
2023/07/21 10:16:13;;;;;;;1.42;0.80;;;21.50;99.90;;;;;;5023467;28;20081;-72
2023/07/21 10:19:14;;;;;;;1.58;0.80;;;21.50;99.90;;;;;;5025263;28;20103;-73
2023/07/21 10:21:50;;;;;;;1.63;0.90;;;21.50;99.90;;;;;;5021808;28;20050;-74
2023/07/21 10:24:32;;;;;;;2.25;0.75;;;21.50;99.90;;;;;;5027610;28;20042;-75
2023/07/21 10:27:05;;;;;;;1.73;1.00;;;21.70;99.90;;;;;;5029650;28;20139;-75
2023/07/21 10:29:31;;;;;;;1.67;0.90;;;21.90;99.90;;;;;;5029643;28;20363;-73
2023/07/21 10:31:58;;;;;;;1.48;0.80;;;22.00;99.90;;;;;;5021158;28;20052;-74
2023/07/21 10:34:40;;;;;;;1.60;0.90;;;22.10;99.90;;;;;;5013062;28;20037;-73
2023/07/21 10:37:07;;;;;;;2.03;0.82;;;22.10;99.90;;;;;;5030475;28;20057;-75
2023/07/21 10:39:34;;;;;;;1.55;0.73;;;22.10;99.90;;;;;;5018769;28;20049;-76
2023/07/21 10:42:06;;;;;;;1.98;1.00;;;21.90;99.90;;;;;;5013387;28;20156;-75
2023/07/21 10:44:37;;;;;;;4.68;1.25;;;21.70;99.90;;;;;;5042105;28;20095;-74
2023/07/21 10:47:04;;;;;;;1.60;0.90;;;21.50;99.90;;;;;;5045247;28;20264;-75
2023/07/21 10:49:31;;;;;;;2.05;0.90;;;21.60;99.90;;;;;;5012540;28;20037;-73
2023/07/21 10:51:57;;;;;;;1.67;0.90;;;21.70;99.90;;;;;;5032783;28;20553;-76
2023/07/21 10:54:23;;;;;;;2.53;1.15;;;21.60;99.90;;;;;;5013205;28;20097;-76
2023/07/21 10:56:51;;;;;;;2.03;1.00;;;21.40;99.90;;;;;;5012878;28;20089;-76
2023/07/21 10:59:18;;;;;;;2.70;1.20;;;21.30;99.90;;;;;;5033759;28;20042;-75
2023/07/21 11:01:53;;;;;;;2.05;1.20;;;21.30;99.90;;;;;;5028211;28;20049;-75
2023/07/21 11:04:21;;;;;;;2.25;1.40;;;21.40;99.90;;;;;;5019263;28;20550;-75
2023/07/21 11:06:52;;;;;;;3.80;1.40;;;21.50;99.90;;;;;;5039722;28;20046;-76
2023/07/21 11:09:19;;;;;;;2.53;1.33;;;21.70;99.90;;;;;;5014596;28;20188;-76
2023/07/21 11:11:47;;;;;;;2.10;1.00;;;21.80;99.90;;;;;;5016128;28;20482;-75
2023/07/21 11:14:14;;;;;;;2.00;1.20;;;21.80;99.90;;;;;;5015164;28;20383;-73
2023/07/21 11:16:59;;;;;;;1.90;0.93;;;21.70;99.90;;;;;;5024454;28;20060;-75
2023/07/21 11:19:30;;;;;;;1.80;1.00;;;21.80;99.90;;;;;;5020947;28;20385;-73
2023/07/21 11:21:56;;;;;;;2.25;1.00;;;21.90;99.90;;;;;;5015053;28;20139;-73
2023/07/21 11:24:27;;;;;;;2.30;0.90;;;21.90;99.90;;;;;;5033527;28;20114;-73
2023/07/21 11:26:56;;;;;;;1.95;1.20;;;21.90;99.90;;;;;;5014452;28;20053;-74
2023/07/21 11:29:24;;;;;;;2.00;1.20;;;21.90;99.90;;;;;;5011284;28;20100;-73
2023/07/21 11:31:49;;;;;;;1.85;1.00;;;21.70;99.90;;;;;;5012434;28;20382;-74
2023/07/21 11:34:20;;;;;;;2.03;0.95;;;21.60;99.90;;;;;;5012162;28;20038;-71
2023/07/21 11:36:49;;;;;;;2.50;1.30;;;21.60;99.90;;;;;;5013885;28;20077;-75
2023/07/21 11:39:22;;;;;;;1.85;1.10;;;21.70;99.90;;;;;;5015061;28;20057;-72
2023/07/21 11:41:50;;;;;;;2.72;1.20;;;22.00;99.90;;;;;;5011156;28;20053;-73
2023/07/21 11:44:25;;;;;;;1.98;1.08;;;22.10;99.90;;;;;;5011739;28;20041;-74
2023/07/21 11:47:09;;;;;;;1.60;1.00;;;22.10;99.90;;;;;;5012152;28;20430;-73
2023/07/21 11:49:42;;;;;;;2.58;1.00;;;21.90;99.90;;;;;;5011776;28;20046;-74
2023/07/21 11:52:09;;;;;;;1.95;1.10;;;21.60;99.90;;;;;;5011702;28;20041;-73
2023/07/21 11:54:43;;;;;;;2.20;1.10;;;21.50;99.90;;;;;;5035413;28;20048;-72
2023/07/21 11:57:10;;;;;;;1.63;1.05;;;21.50;99.90;;;;;;5026377;28;20146;-72
2023/07/21 11:59:37;;;;;;;2.45;1.15;;;21.50;99.90;;;;;;5017562;28;20093;-72
2023/07/21 12:02:05;;;;;;;2.72;1.08;;;21.40;99.90;;;;;;5021045;28;20123;-72
2023/07/21 12:04:32;;;;;;;2.03;1.23;;;21.40;99.90;;;;;;5013543;28;20253;-72
2023/07/21 12:06:59;;;;;;;1.95;1.17;;;21.40;99.90;;;;;;5016455;28;20044;-72
2023/07/21 12:09:25;;;;;;;2.63;1.33;;;21.60;99.90;;;;;;5013917;28;20034;-72
2023/07/21 12:11:54;;;;;;;2.88;1.45;;;21.60;99.90;;;;;;5022405;28;20440;-70
2023/07/21 12:14:20;;;;;;;2.03;1.38;;;21.50;99.90;;;;;;5010158;28;20042;-73
2023/07/21 12:16:45;;;;;;;6.32;2.40;;;21.40;99.90;;;;;;5015303;28;20037;-72
2023/07/21 12:19:11;;;;;;;4.03;1.55;;;21.50;99.90;;;;;;5011095;28;20475;-73
2023/07/21 12:21:37;;;;;;;2.22;1.35;;;21.50;99.90;;;;;;5044967;28;20042;-72
2023/07/21 12:24:03;;;;;;;2.08;1.30;;;21.60;99.90;;;;;;5024292;28;20099;-74
2023/07/21 12:26:29;;;;;;;1.95;1.20;;;21.70;99.90;;;;;;5022435;28;20077;-71
2023/07/21 12:28:55;;;;;;;1.95;1.15;;;21.80;99.90;;;;;;5015318;28;20088;-71
2023/07/21 12:31:21;;;;;;;3.45;1.30;;;21.90;99.90;;;;;;5038657;28;20069;-75
2023/07/21 12:33:48;;;;;;;1.92;1.40;;;21.90;99.90;;;;;;5015620;28;20053;-76
2023/07/21 12:36:15;;;;;;;2.83;1.60;;;21.80;99.90;;;;;;5024183;28;20470;-73
2023/07/21 12:38:42;;;;;;;3.22;1.55;;;21.80;99.90;;;;;;5033348;28;20044;-76
2023/07/21 12:41:08;;;;;;;3.80;1.42;;;21.80;99.90;;;;;;5015363;28;20050;-74
2023/07/21 12:43:35;;;;;;;2.42;1.27;;;21.80;99.90;;;;;;5031160;28;20474;-73
2023/07/21 12:46:01;;;;;;;1.80;1.17;;;22.10;99.90;;;;;;5029150;28;20037;-74
2023/07/21 12:48:28;;;;;;;2.30;1.20;;;22.20;99.90;;;;;;5042842;28;20042;-74